Benoni, South Africa
Current Conditions -  °F | °C
As of 8:00 PM on Friday 24 Oct 2014 (Local Time) from FAOR Reporting Station
Clear Clear  
Wind Chill: 63°   Ceiling: Unl
Heat Index: 63°   Visibility: 6mi
Dew Point: 50°   Wind: 13mph
Humidity: 63%   Direction: 100°E
Pressure: 30.21"   Gusts: 25mph
Location:  26.15°S, 28.33°E
Report Text: FAOR 241800Z 10011G22KT 340V130 CAVOK 17/10 Q1023 NOSIG
Loading
Personal Weather Stations






























Interactive Weather Map
Tropical Storm Tracking
New forecast layout! Learn more

10-Day Weather Forecast

Advertisements
Track Severe Weather on mobile